Time,TemperatureF,DewpointF,PressureIn,WindDirection,WindDirectionDegrees,WindSpeedMPH,WindSpeedGustMPH,Humidity,HourlyPrecipIn,Conditions,Clouds,dailyrainin,SoftwareType,DateUTC
2014-09-18 00:00:00,69.1,64.1,29.91,NE,45,3.5,3.5,84,0.00,RA,,0.00,WeatherDisplay:10.37,2014-09-18 04:00:00,
2014-09-18 00:05:00,69.1,64.1,29.91,NE,45,0.0,0.0,84,0.00,RA,,0.00,WeatherDisplay:10.37,2014-09-18 04:05:00,
2014-09-18 00:10:00,69.3,64.3,29.91,NNE,22,5.8,5.8,84,0.00,CLR,,0.00,WeatherDisplay:10.37,2014-09-18 04:10:00,
2014-09-18 00:15:00,69.3,63.9,29.91,North,360,0.0,2.0,83,0.00,CLR,,0.00,WeatherDisplay:10.37,2014-09-18 04:15:00,
2014-09-18 00:20:00,69.3,63.9,29.91,NE,45,3.5,3.5,83,0.00,CLR,,0.00,WeatherDisplay:10.37,2014-09-18 04:20:00,
2014-09-18 00:25:00,69.3,63.9,29.90,NNE,22,0.0,0.0,83,0.00,CLR,,0.00,WeatherDisplay:10.37,2014-09-18 04:25:00,
2014-09-18 00:30:00,69.3,63.9,29.90,NE,45,0.0,3.2,83,0.00,,,0.00,VISReader,2014-09-18 04:30:00,
2014-09-18 00:35:00,69.3,63.9,29.90,NNE,22,3.5,0.0,83,0.00,CLR,,0.00,WeatherDisplay:10.37,2014-09-18 04:35:00,
2014-09-18 00:40:00,69.1,63.7,29.90,NE,45,0.0,0.0,83,0.00,CLR,,0.00,WeatherDisplay:10.37,2014-09-18 04:40:00,
2014-09-18 00:45:00,69.1,63.7,29.90,WNW,292,3.5,3.5,83,0.00,CLR,,0.00,WeatherDisplay:10.37,2014-09-18 04:45:00,
2014-09-18 00:50:00,69.1,63.7,29.90,NE,45,0.0,0.0,83,0.00,CLR,,0.00,WeatherDisplay:10.37,2014-09-18 04:50:00,
2014-09-18 00:55:00,69.1,63.7,29.90,North,360,0.0,0.0,83,0.00,CLR,,0.00,WeatherDisplay:10.37,2014-09-18 04:55:00,
2014-09-18 00:58:00,68.9,63.5,29.90,NNW,338,0.0,0.0,83,0.00,CLR,,0.00,WeatherDisplay:10.37,2014-09-18 04:58:00,
2014-09-18 01:03:00,68.9,63.9,29.89,NNW,337,0.0,2.2,84,0.00,,,0.00,VISReader,2014-09-18 05:03:00,
2014-09-18 01:08:00,68.7,63.7,29.90,ENE,68,4.0,4.0,84,0.00,CLR,,0.00,WeatherDisplay:10.37,2014-09-18 05:08:00,
2014-09-18 01:13:00,68.7,63.7,29.90,North,360,0.0,0.0,84,0.00,CLR,,0.00,WeatherDisplay:10.37,2014-09-18 05:13:00,
2014-09-18 01:18:00,68.7,63.7,29.90,NNW,338,0.0,0.0,84,0.00,CLR,,0.00,WeatherDisplay:10.37,2014-09-18 05:18:00,
2014-09-18 01:23:00,68.7,63.7,29.90,North,360,0.0,0.0,84,0.00,CLR,,0.00,WeatherDisplay:10.37,2014-09-18 05:23:00,
2014-09-18 01:28:00,68.5,63.5,29.90,NNE,22,0.0,0.0,84,0.00,CLR,,0.00,WeatherDisplay:10.37,2014-09-18 05:28:00,
2014-09-18 01:33:00,68.5,63.8,29.90,ENE,68,0.0,0.0,85,0.00,CLR,,0.00,WeatherDisplay:10.37,2014-09-18 05:33:00,
2014-09-18 01:38:00,68.4,63.7,29.90,NW,315,2.3,2.3,85,0.00,CLR,,0.00,WeatherDisplay:10.37,2014-09-18 05:38:00,
2014-09-18 01:43:00,68.4,63.7,29.90,North,360,0.0,0.0,85,0.00,CLR,,0.00,WeatherDisplay:10.37,2014-09-18 05:43:00,
2014-09-18 01:48:00,68.4,63.7,29.90,NNW,338,0.0,0.0,85,0.00,CLR,,0.00,WeatherDisplay:10.37,2014-09-18 05:48:00,
2014-09-18 01:53:00,68.4,63.7,29.90,NNE,22,0.0,0.0,85,0.00,CLR,,0.00,WeatherDisplay:10.37,2014-09-18 05:53:00,
2014-09-18 01:58:00,68.4,63.7,29.90,North,360,0.0,0.0,85,0.00,CLR,,0.00,WeatherDisplay:10.37,2014-09-18 05:58:00,
2014-09-18 02:03:00,68.2,63.9,29.90,ENE,68,0.0,0.0,86,0.00,CLR,,0.00,WeatherDisplay:10.37,2014-09-18 06:03:00,
2014-09-18 02:08:00,68.2,63.9,29.90,NNE,22,0.0,0.0,86,0.00,CLR,,0.00,WeatherDisplay:10.37,2014-09-18 06:08:00,
2014-09-18 02:13:00,68.2,63.9,29.90,NNE,22,0.0,0.0,86,0.00,CLR,,0.00,WeatherDisplay:10.37,2014-09-18 06:13:00,
2014-09-18 02:18:00,68.2,63.9,29.90,NNW,338,0.0,0.0,86,0.00,CLR,,0.00,WeatherDisplay:10.37,2014-09-18 06:18:00,
2014-09-18 02:23:00,68.4,64.0,29.90,NNE,22,2.3,2.3,86,0.00,CLR,,0.00,WeatherDisplay:10.37,2014-09-18 06:23:00,
2014-09-18 02:28:00,68.5,64.1,29.90,NNE,22,0.0,0.0,86,0.00,CLR,,0.00,WeatherDisplay:10.37,2014-09-18 06:28:00,
2014-09-18 02:33:00,68.5,64.5,29.90,NW,315,0.0,0.0,87,0.00,CLR,,0.00,WeatherDisplay:10.37,2014-09-18 06:33:00,
2014-09-18 02:38:00,68.7,64.7,29.89,NNW,338,4.6,4.6,87,0.00,CLR,,0.00,WeatherDisplay:10.37,2014-09-18 06:38:00,
2014-09-18 02:43:00,68.7,64.7,29.89,North,360,4.0,4.0,87,0.00,CLR,,0.00,WeatherDisplay:10.37,2014-09-18 06:43:00,
2014-09-18 02:48:00,68.9,64.9,29.89,NNW,338,0.0,0.0,87,0.00,CLR,,0.00,WeatherDisplay:10.37,2014-09-18 06:48:00,
2014-09-18 02:53:00,68.9,64.9,29.89,NW,315,0.0,3.2,87,0.00,,,0.00,VISReader,2014-09-18 06:53:00,
2014-09-18 02:58:00,68.9,64.9,29.90,North,360,4.6,0.0,87,0.00,CLR,,0.00,WeatherDisplay:10.37,2014-09-18 06:58:00,
2014-09-18 03:03:00,68.9,64.9,29.89,ENE,68,7.1,7.1,87,0.00,CLR,,0.00,WeatherDisplay:10.37,2014-09-18 07:03:00,
2014-09-18 03:08:00,68.9,64.9,29.89,ENE,68,3.5,3.5,87,0.00,CLR,,0.00,WeatherDisplay:10.37,2014-09-18 07:08:00,
2014-09-18 03:13:00,68.9,64.9,29.89,East,90,3.5,0.0,87,0.00,CLR,,0.00,WeatherDisplay:10.37,2014-09-18 07:13:00,
2014-09-18 03:18:00,68.9,64.5,29.88,NE,45,0.0,0.0,86,0.00,CLR,,0.00,WeatherDisplay:10.37,2014-09-18 07:18:00,
2014-09-18 03:23:00,68.9,64.5,29.88,NW,315,4.6,4.6,86,0.00,CLR,,0.00,WeatherDisplay:10.37,2014-09-18 07:23:00,
2014-09-18 03:28:00,68.9,64.5,29.88,NNE,22,0.0,0.0,86,0.00,CLR,,0.00,WeatherDisplay:10.37,2014-09-18 07:28:00,
2014-09-18 03:33:00,68.7,64.3,29.88,NNE,22,3.5,3.5,86,0.00,CLR,,0.00,WeatherDisplay:10.37,2014-09-18 07:33:00,
2014-09-18 03:38:00,68.7,64.3,29.88,NNE,22,0.0,0.0,86,0.00,CLR,,0.00,WeatherDisplay:10.37,2014-09-18 07:38:00,
2014-09-18 03:43:00,68.7,64.3,29.88,NE,45,0.0,0.0,86,0.00,CLR,,0.00,WeatherDisplay:10.37,2014-09-18 07:43:00,
2014-09-18 03:48:00,68.5,64.1,29.88,NNE,22,0.0,0.0,86,0.00,CLR,,0.00,WeatherDisplay:10.37,2014-09-18 07:48:00,
2014-09-18 03:53:00,68.5,64.1,29.88,ENE,68,0.0,0.0,86,0.00,CLR,,0.00,WeatherDisplay:10.37,2014-09-18 07:53:00,
2014-09-18 03:58:00,68.5,64.1,29.87,NE,45,0.0,0.0,86,0.00,,,0.00,VISReader,2014-09-18 07:58:00,
2014-09-18 04:03:00,68.5,64.1,29.88,NNE,22,5.8,5.8,86,0.00,CLR,,0.00,WeatherDisplay:10.37,2014-09-18 08:03:00,
2014-09-18 04:08:00,68.5,64.1,29.87,NE,45,0.0,4.7,86,0.00,,,0.00,VISReader,2014-09-18 08:08:00,
2014-09-18 04:13:00,68.7,64.0,29.88,West,270,0.0,0.0,85,0.00,CLR,,0.00,WeatherDisplay:10.37,2014-09-18 08:13:00,
2014-09-18 04:18:00,68.7,64.0,29.88,North,360,4.0,0.0,85,0.00,CLR,,0.00,WeatherDisplay:10.37,2014-09-18 08:18:00,
2014-09-18 04:23:00,68.9,64.2,29.88,ENE,68,3.5,0.0,85,0.00,CLR,,0.00,WeatherDisplay:10.37,2014-09-18 08:23:00,
2014-09-18 04:28:00,69.1,64.1,29.87,NNE,22,0.0,5.3,84,0.00,,,0.00,VISReader,2014-09-18 08:28:00,
2014-09-18 04:33:00,69.1,63.7,29.88,ENE,68,5.6,5.6,83,0.00,CLR,,0.00,WeatherDisplay:10.37,2014-09-18 08:33:00,
2014-09-18 04:38:00,69.3,63.9,29.88,ENE,68,6.9,6.9,83,0.00,CLR,,0.00,WeatherDisplay:10.37,2014-09-18 08:38:00,
2014-09-18 04:43:00,69.3,63.6,29.88,WNW,292,6.9,6.9,82,0.00,CLR,,0.00,WeatherDisplay:10.37,2014-09-18 08:43:00,
2014-09-18 04:48:00,69.3,63.6,29.88,East,90,6.9,6.9,82,0.00,CLR,,0.00,WeatherDisplay:10.37,2014-09-18 08:48:00,
2014-09-18 04:53:00,69.3,63.2,29.89,East,90,5.8,5.8,81,0.00,CLR,,0.00,WeatherDisplay:10.37,2014-09-18 08:53:00,
2014-09-18 04:58:00,69.4,63.3,29.89,ESE,112,8.6,8.6,81,0.00,CLR,,0.00,WeatherDisplay:10.37,2014-09-18 08:58:00,
2014-09-18 05:03:00,69.6,63.2,29.89,ENE,68,7.9,7.9,80,0.00,CLR,,0.00,WeatherDisplay:10.37,2014-09-18 09:03:00,
2014-09-18 05:08:00,69.6,63.2,29.89,NNW,338,0.0,0.0,80,0.00,CLR,,0.00,WeatherDisplay:10.37,2014-09-18 09:08:00,
2014-09-18 05:13:00,69.6,63.2,29.89,NE,45,0.0,0.0,80,0.00,CLR,,0.00,WeatherDisplay:10.37,2014-09-18 09:13:00,
2014-09-18 05:18:00,69.6,63.2,29.89,NE,45,3.5,3.5,80,0.00,CLR,,0.00,WeatherDisplay:10.37,2014-09-18 09:18:00,
2014-09-18 05:23:00,69.6,63.2,29.89,ENE,68,3.5,3.5,80,0.00,CLR,,0.00,WeatherDisplay:10.37,2014-09-18 09:23:00,
2014-09-18 05:28:00,69.6,63.2,29.90,NNE,22,3.5,3.5,80,0.00,CLR,,0.00,WeatherDisplay:10.37,2014-09-18 09:28:00,
2014-09-18 05:33:00,69.4,63.0,29.90,NE,45,3.5,3.5,80,0.00,CLR,,0.00,WeatherDisplay:10.37,2014-09-18 09:33:00,
2014-09-18 05:38:00,69.3,63.2,29.90,NE,45,0.0,0.0,81,0.00,CLR,,0.00,WeatherDisplay:10.37,2014-09-18 09:38:00,
2014-09-18 05:43:00,69.1,63.0,29.90,NW,315,0.0,0.0,81,0.00,CLR,,0.00,WeatherDisplay:10.37,2014-09-18 09:43:00,
2014-09-18 05:48:00,69.1,63.0,29.90,NNE,22,0.0,0.0,81,0.00,CLR,,0.00,WeatherDisplay:10.37,2014-09-18 09:48:00,
2014-09-18 05:53:00,68.9,62.8,29.90,NNE,22,0.0,0.0,81,0.00,,,0.00,VISReader,2014-09-18 09:53:00,
2014-09-18 05:58:00,68.7,62.6,29.90,ENE,68,0.0,0.0,81,0.00,CLR,,0.00,WeatherDisplay:10.37,2014-09-18 09:58:00,
2014-09-18 06:03:00,68.5,62.8,29.90,North,360,0.0,0.0,82,0.00,CLR,,0.00,WeatherDisplay:10.37,2014-09-18 10:03:00,
2014-09-18 06:08:00,68.4,62.7,29.90,NNE,22,0.0,0.0,82,0.00,CLR,,0.00,WeatherDisplay:10.37,2014-09-18 10:08:00,
2014-09-18 06:13:00,68.4,62.7,29.91,NNE,22,0.0,0.0,82,0.00,CLR,,0.00,WeatherDisplay:10.37,2014-09-18 10:13:00,
2014-09-18 06:18:00,68.2,62.5,29.91,North,360,0.0,0.0,82,0.00,CLR,,0.00,WeatherDisplay:10.37,2014-09-18 10:18:00,
2014-09-18 06:23:00,68.2,62.5,29.91,NNW,338,0.0,0.0,82,0.00,CLR,,0.00,WeatherDisplay:10.37,2014-09-18 10:23:00,
2014-09-18 06:25:00,68.0,62.3,29.91,NNW,338,0.0,0.0,82,0.00,CLR,,0.00,WeatherDisplay:10.37,2014-09-18 10:25:00,
2014-09-18 06:30:00,68.0,62.3,29.91,NNE,22,0.0,0.0,82,0.00,CLR,,0.00,WeatherDisplay:10.37,2014-09-18 10:30:00,
2014-09-18 06:35:00,68.0,62.3,29.90,NNW,337,0.0,0.0,82,0.00,,,0.00,VISReader,2014-09-18 10:35:00,
2014-09-18 06:40:00,68.0,62.3,29.90,NE,45,0.0,0.0,82,0.00,CLR,,0.00,WeatherDisplay:10.37,2014-09-18 10:40:00,
2014-09-18 06:45:00,68.0,62.3,29.90,NW,315,0.0,0.0,82,0.00,CLR,,0.00,WeatherDisplay:10.37,2014-09-18 10:45:00,
2014-09-18 06:50:00,68.0,62.3,29.91,North,360,0.0,0.0,82,0.00,CLR,,0.00,WeatherDisplay:10.37,2014-09-18 10:50:00,
2014-09-18 06:53:00,68.0,62.3,29.91,North,360,0.0,0.0,82,0.00,CLR,,0.00,WeatherDisplay:10.37,2014-09-18 10:53:00,
2014-09-18 06:58:00,68.0,62.3,29.91,ENE,68,0.0,0.0,82,0.00,CLR,,0.00,WeatherDisplay:10.37,2014-09-18 10:58:00,
2014-09-18 07:03:00,68.0,62.3,29.91,ESE,112,4.6,4.6,82,0.00,CLR,,0.00,WeatherDisplay:10.37,2014-09-18 11:03:00,
2014-09-18 07:08:00,68.2,62.5,29.91,NE,45,0.0,0.0,82,0.00,CLR,,0.00,WeatherDisplay:10.37,2014-09-18 11:08:00,